Time;durP1;ratioP1;P1;durP2;ratioP2;P2;SDS_P1;SDS_P2;PMS_P1;PMS_P2;Temp;Humidity;BMP_temperature;BMP_pressure;BME280_temperature;BME280_humidity;BME280_pressure;Samples;Min_cycle;Max_cycle;Signal;HPM_P1;HPM_P2
2022/08/29 00:00:21;;;;;;;6.82;2.30;;;17.80;99.90;;;;;;5012388;28;20096;-59
2022/08/29 00:02:51;;;;;;;4.82;1.88;;;17.70;99.90;;;;;;4995163;28;20096;-59
2022/08/29 00:05:20;;;;;;;8.50;2.17;;;17.70;99.90;;;;;;5012168;28;20042;-59
2022/08/29 00:07:51;;;;;;;3.60;1.70;;;17.70;99.90;;;;;;5012641;28;20038;-58
2022/08/29 00:10:18;;;;;;;5.65;1.70;;;17.60;99.90;;;;;;4979073;28;20115;-58
2022/08/29 00:12:45;;;;;;;5.57;1.30;;;17.60;99.90;;;;;;4994732;28;20069;-60
2022/08/29 00:15:13;;;;;;;4.18;1.83;;;17.60;99.90;;;;;;5012205;28;20398;-59
2022/08/29 00:17:40;;;;;;;7.97;2.15;;;17.60;99.90;;;;;;5012460;28;20045;-60
2022/08/29 00:20:08;;;;;;;8.10;2.40;;;17.60;99.90;;;;;;5009256;28;20077;-59
2022/08/29 00:22:35;;;;;;;7.53;2.30;;;17.60;99.90;;;;;;5009130;28;20041;-60
2022/08/29 00:25:04;;;;;;;3.10;2.20;;;17.60;99.90;;;;;;4994738;28;20758;-60
2022/08/29 00:27:32;;;;;;;7.72;2.47;;;17.60;99.90;;;;;;5012262;28;20493;-60
2022/08/29 00:29:59;;;;;;;7.25;2.58;;;17.60;99.90;;;;;;5012307;28;20100;-59
2022/08/29 00:32:27;;;;;;;7.43;2.17;;;17.60;99.90;;;;;;5011702;28;20049;-58
2022/08/29 00:34:54;;;;;;;4.65;2.30;;;17.60;99.90;;;;;;5012431;28;20073;-58
2022/08/29 00:37:21;;;;;;;5.47;2.00;;;17.60;99.90;;;;;;5012015;28;20096;-58
2022/08/29 00:39:49;;;;;;;5.10;1.80;;;17.60;99.90;;;;;;5012270;28;20046;-60
2022/08/29 00:42:16;;;;;;;3.30;1.27;;;17.60;99.90;;;;;;4994091;28;20516;-60
2022/08/29 00:44:44;;;;;;;4.45;1.73;;;17.60;99.90;;;;;;4994352;28;20478;-59
2022/08/29 00:47:11;;;;;;;4.63;1.52;;;17.50;99.90;;;;;;4995045;28;20555;-59
2022/08/29 00:49:44;;;;;;;3.15;1.42;;;17.50;99.90;;;;;;4979184;28;20052;-59
2022/08/29 00:52:17;;;;;;;3.63;1.50;;;17.50;99.90;;;;;;4963217;28;20049;-59
2022/08/29 00:54:47;;;;;;;7.93;2.58;;;17.50;99.90;;;;;;4994808;28;20046;-59
2022/08/29 00:57:16;;;;;;;2.45;1.27;;;17.50;99.90;;;;;;4978900;28;20049;-59
2022/08/29 00:59:42;;;;;;;3.38;1.77;;;17.50;99.90;;;;;;5011918;28;20084;-60
2022/08/29 01:02:10;;;;;;;7.57;1.40;;;17.50;99.90;;;;;;5011337;28;20148;-59
2022/08/29 01:04:38;;;;;;;6.65;1.83;;;17.40;99.90;;;;;;5013472;28;20068;-59
2022/08/29 01:07:06;;;;;;;5.28;1.52;;;17.40;99.90;;;;;;4998631;28;20077;-60
2022/08/29 01:09:34;;;;;;;3.78;1.55;;;17.40;99.90;;;;;;4998717;28;20042;-59
2022/08/29 01:12:16;;;;;;;2.63;1.80;;;17.40;99.90;;;;;;4982060;28;20452;-60
2022/08/29 01:14:54;;;;;;;3.47;1.42;;;17.40;99.90;;;;;;5015932;28;20053;-59
2022/08/29 01:17:33;;;;;;;4.95;1.83;;;17.30;99.90;;;;;;4998508;28;20075;-59
2022/08/29 01:20:22;;;;;;;2.78;1.48;;;17.30;99.90;;;;;;4988243;28;20489;-59
2022/08/29 01:22:49;;;;;;;7.43;1.95;;;17.30;99.90;;;;;;4998631;28;20417;-59
2022/08/29 01:25:19;;;;;;;7.65;1.33;;;17.30;99.90;;;;;;5016056;28;20045;-59
2022/08/29 01:27:49;;;;;;;7.25;1.92;;;17.30;99.90;;;;;;5013113;28;20080;-60
2022/08/29 01:30:16;;;;;;;5.55;1.88;;;17.30;99.90;;;;;;4987565;28;20042;-59
2022/08/29 01:32:43;;;;;;;6.22;1.70;;;17.30;99.90;;;;;;5014475;28;20049;-60
2022/08/29 01:35:10;;;;;;;6.22;1.55;;;17.30;99.90;;;;;;4998028;28;20058;-59
2022/08/29 01:37:39;;;;;;;4.18;1.48;;;17.30;99.90;;;;;;5015030;28;20069;-59
2022/08/29 01:40:06;;;;;;;3.13;1.20;;;17.30;99.90;;;;;;4984112;28;20494;-61
2022/08/29 01:42:34;;;;;;;8.00;2.15;;;17.30;99.90;;;;;;5001476;28;20053;-59
2022/08/29 01:45:04;;;;;;;3.50;1.40;;;17.30;99.90;;;;;;5015701;28;20054;-59
2022/08/29 01:47:36;;;;;;;5.50;1.75;;;17.30;99.90;;;;;;4997863;28;20076;-58
2022/08/29 01:50:07;;;;;;;4.93;1.60;;;17.20;99.90;;;;;;5013589;28;20084;-59
2022/08/29 01:52:33;;;;;;;3.85;1.77;;;17.30;99.90;;;;;;4997925;28;20469;-58
2022/08/29 01:55:00;;;;;;;4.50;1.55;;;17.30;99.90;;;;;;5014499;28;20070;-59
2022/08/29 01:57:27;;;;;;;11.75;2.28;;;17.30;99.90;;;;;;5014600;28;20096;-59
2022/08/29 01:59:55;;;;;;;4.72;1.48;;;17.20;99.90;;;;;;5014426;28;20092;-59
2022/08/29 02:02:24;;;;;;;5.82;1.35;;;17.30;99.90;;;;;;4996707;28;20085;-60
2022/08/29 02:04:52;;;;;;;5.00;1.80;;;17.20;99.90;;;;;;4997156;28;20481;-59
2022/08/29 02:07:19;;;;;;;3.70;1.92;;;17.20;99.90;;;;;;4997255;28;20049;-59
2022/08/29 02:09:46;;;;;;;9.32;2.05;;;17.20;99.90;;;;;;4997206;28;20072;-59
2022/08/29 02:12:14;;;;;;;7.63;1.58;;;17.20;99.90;;;;;;4996733;28;20060;-58
2022/08/29 02:14:41;;;;;;;2.83;1.48;;;17.20;99.90;;;;;;5014493;28;20482;-58
2022/08/29 02:17:08;;;;;;;6.10;1.55;;;17.20;99.90;;;;;;4996242;28;20046;-60
2022/08/29 02:19:35;;;;;;;5.25;1.50;;;17.10;99.90;;;;;;5013887;28;20478;-58
2022/08/29 02:22:02;;;;;;;5.43;1.65;;;17.10;99.90;;;;;;4996541;28;20490;-59
2022/08/29 02:24:29;;;;;;;4.60;1.42;;;17.10;99.90;;;;;;4996620;28;20045;-58
2022/08/29 02:26:56;;;;;;;2.67;1.35;;;17.10;99.90;;;;;;4996411;28;20046;-59
2022/08/29 02:29:24;;;;;;;4.03;1.60;;;17.10;99.90;;;;;;5014140;28;20090;-59
2022/08/29 02:31:51;;;;;;;3.17;1.23;;;17.10;99.90;;;;;;4979609;28;20097;-59
2022/08/29 02:34:18;;;;;;;4.22;1.38;;;17.10;99.90;;;;;;5013368;28;20196;-59
2022/08/29 02:36:45;;;;;;;3.75;1.60;;;17.10;99.90;;;;;;5013944;28;20040;-59
2022/08/29 02:39:15;;;;;;;9.38;1.77;;;17.10;99.90;;;;;;4997143;28;20125;-59
2022/08/29 02:41:42;;;;;;;2.15;1.17;;;17.10;99.90;;;;;;5013543;28;20555;-59
2022/08/29 02:44:11;;;;;;;4.55;1.10;;;17.10;99.90;;;;;;5013787;28;20452;-59
2022/08/29 02:46:38;;;;;;;2.63;1.30;;;17.10;99.90;;;;;;5013538;28;20132;-59
2022/08/29 02:49:05;;;;;;;4.68;1.80;;;17.00;99.90;;;;;;5013658;28;20050;-59
2022/08/29 02:51:33;;;;;;;4.35;1.70;;;17.10;99.90;;;;;;4997032;28;20401;-59
2022/08/29 02:54:00;;;;;;;7.18;1.67;;;17.00;99.90;;;;;;4995971;28;20497;-59
2022/08/29 02:56:27;;;;;;;2.45;1.60;;;17.10;99.90;;;;;;4996309;28;20112;-59
2022/08/29 02:58:54;;;;;;;5.82;1.52;;;17.00;99.90;;;;;;5013865;28;20074;-59
2022/08/29 03:01:21;;;;;;;5.30;1.30;;;17.00;99.90;;;;;;4996299;28;20038;-59
2022/08/29 03:03:49;;;;;;;6.95;2.33;;;17.00;99.90;;;;;;4979989;28;20042;-59
2022/08/29 03:06:17;;;;;;;4.47;1.77;;;17.00;99.90;;;;;;5013300;28;20119;-59
2022/08/29 03:08:44;;;;;;;4.53;1.40;;;17.00;99.90;;;;;;5013503;28;20045;-59
2022/08/29 03:11:11;;;;;;;3.55;1.40;;;17.00;99.90;;;;;;4996111;28;20042;-60
2022/08/29 03:13:38;;;;;;;2.75;1.30;;;17.00;99.90;;;;;;5013025;28;20053;-59
2022/08/29 03:16:05;;;;;;;5.80;1.60;;;17.10;99.90;;;;;;4979858;28;20049;-59
2022/08/29 03:18:32;;;;;;;8.15;1.80;;;17.00;99.90;;;;;;5013251;28;20038;-58
2022/08/29 03:20:58;;;;;;;4.30;1.50;;;17.00;99.90;;;;;;5012437;28;20466;-59
2022/08/29 03:23:25;;;;;;;4.35;1.50;;;17.00;99.90;;;;;;5012875;28;20053;-59
2022/08/29 03:25:53;;;;;;;6.45;1.48;;;17.00;99.90;;;;;;5012882;28;20082;-59
2022/08/29 03:28:20;;;;;;;7.05;1.52;;;17.00;99.90;;;;;;5010559;28;20045;-59
2022/08/29 03:30:47;;;;;;;4.75;1.55;;;16.90;99.90;;;;;;4995842;28;20103;-60
2022/08/29 03:33:14;;;;;;;4.60;1.63;;;16.90;99.90;;;;;;5012690;28;20057;-58
2022/08/29 03:35:41;;;;;;;4.18;1.65;;;16.90;99.90;;;;;;4995485;28;20564;-58
2022/08/29 03:38:08;;;;;;;5.53;1.85;;;16.90;99.90;;;;;;4995507;28;20112;-59
2022/08/29 03:40:35;;;;;;;6.22;1.45;;;16.90;99.90;;;;;;5012934;28;20053;-59
2022/08/29 03:43:02;;;;;;;2.35;1.38;;;16.90;99.90;;;;;;5012112;28;20547;-58
2022/08/29 03:45:29;;;;;;;3.92;1.20;;;16.90;99.90;;;;;;5012744;28;20050;-59
2022/08/29 03:47:56;;;;;;;2.90;1.48;;;16.90;99.90;;;;;;5012723;28;20100;-59
2022/08/29 03:50:23;;;;;;;5.68;1.73;;;16.90;99.90;;;;;;5012817;28;20057;-59
2022/08/29 03:52:50;;;;;;;4.60;1.88;;;16.90;99.90;;;;;;4962905;28;20098;-60
2022/08/29 03:55:18;;;;;;;4.70;1.42;;;16.80;99.90;;;;;;5012370;28;20049;-59
2022/08/29 03:57:45;;;;;;;3.70;1.55;;;16.70;99.90;;;;;;5012357;28;20046;-60
2022/08/29 04:00:15;;;;;;;3.00;1.80;;;16.70;99.90;;;;;;5013045;28;20050;-59
2022/08/29 04:02:43;;;;;;;2.20;1.10;;;16.70;99.90;;;;;;4992828;28;20733;-59
2022/08/29 04:05:11;;;;;;;7.40;1.88;;;16.60;99.90;;;;;;5008259;28;20406;-59
2022/08/29 04:07:42;;;;;;;3.72;2.35;;;16.60;99.90;;;;;;4995008;28;20073;-59
2022/08/29 04:10:09;;;;;;;6.18;2.05;;;16.60;99.90;;;;;;4994964;28;20045;-59
2022/08/29 04:12:36;;;;;;;7.65;1.98;;;16.60;99.90;;;;;;4978495;28;20049;-59
2022/08/29 04:15:04;;;;;;;3.72;1.77;;;16.60;99.90;;;;;;5012148;28;20089;-59
2022/08/29 04:17:32;;;;;;;4.05;1.85;;;16.60;99.90;;;;;;4995180;28;20065;-60
2022/08/29 04:19:58;;;;;;;5.68;1.40;;;16.50;99.90;;;;;;5012526;28;20104;-61
2022/08/29 04:22:26;;;;;;;7.50;1.90;;;16.50;99.90;;;;;;5012286;28;20049;-59
2022/08/29 04:24:53;;;;;;;6.65;1.88;;;16.50;99.90;;;;;;5011994;28;20073;-60
2022/08/29 04:27:20;;;;;;;5.90;2.00;;;16.50;99.90;;;;;;5011956;28;20081;-59
2022/08/29 04:29:47;;;;;;;2.90;1.77;;;16.50;99.90;;;;;;5011922;28;20485;-59
2022/08/29 04:32:15;;;;;;;9.00;2.22;;;16.40;99.90;;;;;;5011716;28;20081;-60
2022/08/29 04:34:42;;;;;;;5.80;2.22;;;16.40;99.90;;;;;;4994628;28;20126;-60
2022/08/29 04:37:09;;;;;;;5.38;1.67;;;16.40;99.90;;;;;;4994715;28;20084;-60
2022/08/29 04:39:35;;;;;;;3.17;1.70;;;16.40;99.90;;;;;;5011396;28;20065;-60
2022/08/29 04:42:03;;;;;;;4.70;1.67;;;16.40;99.90;;;;;;5011949;28;20045;-60
2022/08/29 04:44:30;;;;;;;3.88;1.27;;;16.40;99.90;;;;;;5011566;28;20089;-60
2022/08/29 04:46:57;;;;;;;5.57;1.40;;;16.40;99.90;;;;;;4978718;28;20050;-60
2022/08/29 04:49:24;;;;;;;5.05;1.75;;;16.30;99.90;;;;;;4994272;28;20081;-60
2022/08/29 04:51:52;;;;;;;5.18;2.10;;;16.30;99.90;;;;;;4979071;28;20046;-59
2022/08/29 04:54:19;;;;;;;5.30;1.42;;;16.30;99.90;;;;;;5011598;28;20046;-59
2022/08/29 04:56:45;;;;;;;5.57;1.60;;;16.30;99.90;;;;;;5012020;28;20193;-59
2022/08/29 04:59:14;;;;;;;2.65;1.45;;;16.40;99.90;;;;;;5012298;28;20050;-59
2022/08/29 05:01:42;;;;;;;5.70;1.67;;;16.40;99.90;;;;;;4994691;28;20044;-60
2022/08/29 05:04:09;;;;;;;4.70;1.58;;;16.40;99.90;;;;;;5012117;28;20085;-59
2022/08/29 05:06:40;;;;;;;9.13;1.67;;;16.40;99.90;;;;;;4995216;28;20053;-59
2022/08/29 05:09:07;;;;;;;6.00;1.80;;;16.30;99.90;;;;;;5011837;28;20050;-59
2022/08/29 05:11:34;;;;;;;5.25;1.63;;;16.40;99.90;;;;;;5012166;28;20085;-59
2022/08/29 05:14:01;;;;;;;9.68;2.40;;;16.40;99.90;;;;;;5012595;28;20133;-59
2022/08/29 05:16:29;;;;;;;8.35;2.00;;;16.40;99.90;;;;;;5012188;28;20050;-58
2022/08/29 05:18:57;;;;;;;6.05;2.42;;;16.30;99.90;;;;;;4978955;28;20385;-59
2022/08/29 05:21:31;;;;;;;6.65;1.67;;;16.30;99.90;;;;;;5011860;28;20054;-60
2022/08/29 05:24:03;;;;;;;6.88;2.13;;;16.30;99.90;;;;;;4994298;28;20454;-59
2022/08/29 05:26:35;;;;;;;10.25;2.05;;;16.30;99.90;;;;;;4978510;28;20593;-59
2022/08/29 05:29:06;;;;;;;3.47;1.65;;;16.30;99.90;;;;;;4994612;28;20050;-59
2022/08/29 05:31:35;;;;;;;3.92;1.73;;;16.20;99.90;;;;;;4978337;28;20069;-59
2022/08/29 05:34:04;;;;;;;4.63;1.88;;;16.20;99.90;;;;;;4993704;28;20046;-59
2022/08/29 05:36:50;;;;;;;6.85;1.80;;;16.30;99.90;;;;;;5011575;28;20331;-59
2022/08/29 05:39:17;;;;;;;4.40;2.05;;;16.20;99.90;;;;;;5011535;28;20042;-59
2022/08/29 05:41:44;;;;;;;6.82;2.00;;;16.20;99.90;;;;;;5011609;28;20050;-59
2022/08/29 05:44:13;;;;;;;4.82;1.67;;;16.20;99.90;;;;;;4994152;28;20081;-59
2022/08/29 05:46:40;;;;;;;4.63;1.42;;;16.30;99.90;;;;;;5010925;28;20049;-59
2022/08/29 05:49:07;;;;;;;6.75;2.13;;;16.30;99.90;;;;;;5011030;28;20768;-59
2022/08/29 05:51:35;;;;;;;5.18;1.73;;;16.40;99.90;;;;;;5014090;28;20093;-59
2022/08/29 05:54:05;;;;;;;6.22;2.08;;;16.40;99.90;;;;;;5003632;28;20129;-59
2022/08/29 05:56:32;;;;;;;3.90;1.85;;;16.40;99.90;;;;;;4996799;28;20053;-58
2022/08/29 05:58:59;;;;;;;3.63;1.40;;;16.40;99.90;;;;;;5014648;28;20038;-59
2022/08/29 06:01:29;;;;;;;6.03;1.98;;;16.50;99.90;;;;;;5013941;28;20461;-59
2022/08/29 06:03:58;;;;;;;5.43;1.63;;;16.50;99.90;;;;;;5011409;28;20133;-59
2022/08/29 06:06:26;;;;;;;3.92;1.42;;;16.50;99.90;;;;;;4997070;28;20046;-58
2022/08/29 06:08:53;;;;;;;4.35;1.77;;;16.60;99.90;;;;;;4980592;28;20044;-59
2022/08/29 06:11:28;;;;;;;6.82;1.83;;;16.60;99.90;;;;;;5013944;28;20108;-59
2022/08/29 06:13:55;;;;;;;5.00;1.50;;;16.70;99.90;;;;;;4991740;28;20426;-58
2022/08/29 06:16:23;;;;;;;4.57;1.80;;;16.70;99.90;;;;;;4994312;28;20065;-59
2022/08/29 06:18:49;;;;;;;3.70;1.65;;;16.80;99.90;;;;;;4994772;28;20082;-59
2022/08/29 06:21:17;;;;;;;3.63;2.10;;;16.90;99.90;;;;;;4993223;28;20134;-58
2022/08/29 06:23:44;;;;;;;5.70;1.80;;;16.90;99.90;;;;;;4993115;28;20523;-59
2022/08/29 06:26:11;;;;;;;3.55;1.08;;;17.00;99.90;;;;;;4992825;28;20092;-59
2022/08/29 06:28:40;;;;;;;5.90;1.65;;;17.10;99.90;;;;;;4994221;28;20093;-59
2022/08/29 06:31:08;;;;;;;3.33;1.25;;;17.20;99.90;;;;;;4993281;28;20058;-59
2022/08/29 06:33:37;;;;;;;5.60;1.38;;;17.30;99.90;;;;;;4993168;28;20519;-59
2022/08/29 06:36:05;;;;;;;4.65;1.50;;;17.40;99.90;;;;;;4993150;28;20081;-59
2022/08/29 06:38:32;;;;;;;6.35;1.58;;;17.50;99.90;;;;;;4992911;28;20050;-58
2022/08/29 06:41:10;;;;;;;8.50;2.22;;;17.60;99.90;;;;;;4994108;28;20074;-59
2022/08/29 06:43:37;;;;;;;6.68;1.60;;;17.50;99.90;;;;;;4992686;28;20042;-58
2022/08/29 06:46:03;;;;;;;3.95;1.33;;;17.60;99.90;;;;;;4993125;28;20058;-59
2022/08/29 06:48:30;;;;;;;5.40;1.25;;;17.60;99.90;;;;;;4992715;28;20173;-59
2022/08/29 06:51:00;;;;;;;4.95;1.48;;;17.70;99.90;;;;;;4983427;28;20058;-59
2022/08/29 06:53:27;;;;;;;3.67;1.38;;;17.80;99.90;;;;;;4992416;28;20552;-59
2022/08/29 06:56:05;;;;;;;3.22;1.30;;;17.90;99.90;;;;;;4992848;28;20054;-60
2022/08/29 06:58:36;;;;;;;4.38;1.63;;;17.90;99.90;;;;;;4993963;28;20105;-59
2022/08/29 07:01:07;;;;;;;6.25;1.48;;;18.00;99.90;;;;;;4992373;28;20069;-59
2022/08/29 07:03:34;;;;;;;9.25;1.73;;;18.10;99.90;;;;;;4991551;28;20085;-59
2022/08/29 07:06:01;;;;;;;8.23;1.65;;;18.10;99.90;;;;;;4973078;28;20080;-59
2022/08/29 07:08:29;;;;;;;4.65;1.65;;;18.20;99.90;;;;;;4993424;28;20054;-60
2022/08/29 07:10:56;;;;;;;3.60;1.38;;;18.20;99.90;;;;;;4992566;28;20510;-59
2022/08/29 07:13:23;;;;;;;3.97;1.30;;;18.20;99.90;;;;;;5002212;28;20061;-58
2022/08/29 07:15:50;;;;;;;3.58;1.40;;;18.20;99.90;;;;;;4995723;28;20120;-59
2022/08/29 07:18:17;;;;;;;5.93;1.33;;;18.20;99.90;;;;;;5012966;28;20052;-59
2022/08/29 07:20:44;;;;;;;6.22;1.30;;;18.20;99.90;;;;;;4995234;28;20104;-60
2022/08/29 07:23:11;;;;;;;6.60;1.52;;;18.20;99.90;;;;;;5003019;28;20471;-59
2022/08/29 07:25:38;;;;;;;3.35;1.23;;;18.20;99.90;;;;;;4973339;28;20046;-59
2022/08/29 07:28:05;;;;;;;3.13;1.50;;;18.20;99.90;;;;;;4979098;28;20404;-58
2022/08/29 07:30:33;;;;;;;7.60;1.50;;;18.30;99.90;;;;;;4995642;28;20042;-59
2022/08/29 07:33:00;;;;;;;4.35;1.40;;;18.30;99.90;;;;;;5012726;28;20044;-59
2022/08/29 07:35:27;;;;;;;4.15;1.17;;;18.40;99.90;;;;;;5012400;28;20080;-59
2022/08/29 07:37:57;;;;;;;5.95;1.65;;;18.40;99.90;;;;;;5012446;28;20046;-59
2022/08/29 07:40:24;;;;;;;5.90;1.63;;;18.50;99.90;;;;;;4994526;28;20046;-59
2022/08/29 07:42:51;;;;;;;5.55;1.25;;;18.60;99.90;;;;;;4994860;28;20058;-59
2022/08/29 07:45:18;;;;;;;2.97;1.23;;;18.60;99.90;;;;;;4994995;28;20046;-58
2022/08/29 07:47:45;;;;;;;7.45;1.75;;;18.70;99.90;;;;;;5012008;28;20458;-60
2022/08/29 07:50:12;;;;;;;2.38;1.10;;;18.70;99.90;;;;;;5012439;28;20417;-59
2022/08/29 07:52:39;;;;;;;2.85;1.40;;;18.80;99.90;;;;;;5012693;28;20050;-59
2022/08/29 07:55:06;;;;;;;5.72;1.52;;;18.80;99.90;;;;;;5012589;28;20046;-60
2022/08/29 07:57:33;;;;;;;1.70;0.90;;;18.80;99.90;;;;;;4995254;28;20046;-59
2022/08/29 08:00:09;;;;;;;3.30;1.58;;;18.90;99.90;;;;;;4995664;28;20053;-60
2022/08/29 08:02:36;;;;;;;3.90;1.42;;;19.00;99.90;;;;;;5012330;28;20091;-60
2022/08/29 08:05:03;;;;;;;7.60;1.88;;;19.10;99.90;;;;;;4978881;28;20539;-58
2022/08/29 08:07:33;;;;;;;2.90;1.77;;;19.20;99.90;;;;;;5012152;28;20488;-60
2022/08/29 08:10:01;;;;;;;4.05;1.50;;;19.30;99.90;;;;;;4995144;28;20243;-60
2022/08/29 08:12:28;;;;;;;4.90;1.70;;;19.30;99.90;;;;;;4993930;28;20081;-60
2022/08/29 08:14:55;;;;;;;4.40;1.30;;;19.30;99.90;;;;;;4978094;28;20076;-59
2022/08/29 08:17:22;;;;;;;4.32;1.88;;;19.40;99.90;;;;;;4978955;28;20064;-60
2022/08/29 08:19:49;;;;;;;3.95;1.23;;;19.40;99.90;;;;;;5012012;28;20038;-60
2022/08/29 08:22:16;;;;;;;5.15;1.30;;;19.40;99.90;;;;;;5011676;28;20096;-60
2022/08/29 08:24:43;;;;;;;5.70;1.25;;;19.50;99.90;;;;;;5011592;28;20045;-60
2022/08/29 08:27:10;;;;;;;2.58;1.15;;;19.50;99.90;;;;;;4994246;28;20085;-60
2022/08/29 08:29:37;;;;;;;7.15;1.35;;;19.50;99.90;;;;;;5011857;28;20100;-59
2022/08/29 08:32:04;;;;;;;4.53;1.63;;;19.60;99.90;;;;;;5011950;28;20042;-59
2022/08/29 08:34:31;;;;;;;4.00;1.55;;;19.60;99.90;;;;;;5012268;28;20049;-59
2022/08/29 08:37:07;;;;;;;3.97;1.20;;;19.60;99.90;;;;;;4979675;28;20136;-59
2022/08/29 08:39:34;;;;;;;3.30;1.20;;;19.60;99.90;;;;;;4963482;28;20077;-60
2022/08/29 08:42:11;;;;;;;3.70;1.45;;;19.50;99.90;;;;;;5014547;28;20054;-60
2022/08/29 08:45:06;;;;;;;5.05;1.83;;;19.60;99.90;;;;;;5019719;28;20045;-59
2022/08/29 08:47:38;;;;;;;3.95;1.48;;;19.60;99.90;;;;;;5003995;28;20045;-59
2022/08/29 08:50:11;;;;;;;4.40;1.50;;;19.60;99.90;;;;;;4965098;28;20072;-60
2022/08/29 08:52:57;;;;;;;5.28;1.52;;;19.50;99.90;;;;;;5004319;28;20049;-59
2022/08/29 08:55:38;;;;;;;5.88;2.38;;;19.50;99.90;;;;;;4988874;28;20042;-60
2022/08/29 08:58:11;;;;;;;11.65;2.03;;;19.60;99.90;;;;;;4997655;28;20045;-58
2022/08/29 09:00:53;;;;;;;5.67;1.93;;;19.80;99.90;;;;;;5016731;28;20045;-59
2022/08/29 09:03:58;;;;;;;9.43;2.25;;;19.80;99.90;;;;;;4968720;28;20498;-59
2022/08/29 09:06:45;;;;;;;13.23;2.25;;;19.90;99.90;;;;;;5015902;28;20072;-59
2022/08/29 09:09:34;;;;;;;7.57;1.73;;;20.00;99.90;;;;;;5016002;28;20085;-60
2022/08/29 09:12:24;;;;;;;7.15;2.03;;;20.10;99.90;;;;;;5011492;28;20054;-60
2022/08/29 09:15:03;;;;;;;6.13;1.10;;;20.20;99.90;;;;;;4997282;28;20078;-60
2022/08/29 09:17:53;;;;;;;4.65;1.75;;;20.20;99.90;;;;;;5012595;28;20046;-59
2022/08/29 09:20:23;;;;;;;8.70;1.33;;;20.40;99.30;;;;;;5012037;28;20069;-59
2022/08/29 09:23:03;;;;;;;6.75;1.92;;;20.40;99.90;;;;;;5012414;28;20092;-59
2022/08/29 09:25:29;;;;;;;7.75;2.33;;;20.40;99.90;;;;;;4997128;28;20088;-59
2022/08/29 09:27:57;;;;;;;4.40;1.52;;;20.40;99.90;;;;;;5015581;28;20046;-60
2022/08/29 09:30:28;;;;;;;8.40;2.13;;;20.30;99.90;;;;;;4997834;28;20096;-60
2022/08/29 09:32:55;;;;;;;6.88;1.85;;;20.30;99.90;;;;;;5015599;28;20104;-59
2022/08/29 09:35:26;;;;;;;14.20;2.10;;;20.30;99.90;;;;;;5015650;28;20129;-61
2022/08/29 09:38:16;;;;;;;3.78;1.90;;;20.40;99.90;;;;;;5010937;28;20050;-59
2022/08/29 09:40:43;;;;;;;3.95;1.67;;;20.50;98.10;;;;;;4988975;28;20050;-60
2022/08/29 09:43:16;;;;;;;5.03;1.63;;;20.50;99.90;;;;;;5015225;28;20066;-59
2022/08/29 09:46:09;;;;;;;2.85;1.48;;;20.60;98.70;;;;;;4988404;28;20081;-60
2022/08/29 09:48:47;;;;;;;7.67;2.50;;;20.60;96.10;;;;;;4997055;28;20054;-60
2022/08/29 09:51:34;;;;;;;6.65;1.52;;;20.60;98.30;;;;;;5015353;28;20494;-60
2022/08/29 09:54:25;;;;;;;2.00;1.30;;;20.60;95.50;;;;;;4997192;28;20191;-60
2022/08/29 09:57:13;;;;;;;2.40;1.30;;;20.60;95.70;;;;;;5012588;28;20046;-60
2022/08/29 09:59:42;;;;;;;5.80;1.55;;;20.60;97.40;;;;;;4995970;28;20085;-60
2022/08/29 10:02:19;;;;;;;2.72;1.30;;;20.80;97.40;;;;;;4997511;28;20056;-60
2022/08/29 10:04:52;;;;;;;6.85;2.15;;;21.00;96.20;;;;;;4981956;28;20042;-60
2022/08/29 10:07:22;;;;;;;6.85;2.33;;;21.10;94.80;;;;;;5013977;28;20053;-60
2022/08/29 10:10:04;;;;;;;5.35;1.42;;;21.10;94.80;;;;;;5014075;28;20042;-59
2022/08/29 10:13:06;;;;;;;7.82;1.95;;;21.30;93.00;;;;;;4980670;28;20054;-60
2022/08/29 10:15:38;;;;;;;7.43;2.00;;;21.40;90.80;;;;;;5005193;28;20478;-60
2022/08/29 10:18:35;;;;;;;2.38;1.33;;;21.40;93.40;;;;;;5014268;28;20050;-60
2022/08/29 10:21:39;;;;;;;2.05;1.48;;;21.50;91.10;;;;;;5014180;28;20038;-60
2022/08/29 10:24:06;;;;;;;4.40;1.42;;;21.60;90.50;;;;;;5014586;28;20076;-60
2022/08/29 10:27:10;;;;;;;3.45;1.60;;;21.50;93.30;;;;;;4996135;28;20061;-59
2022/08/29 10:29:37;;;;;;;;;;;21.50;90.00;;;;;;5009834;28;20096;-60
2022/08/29 10:32:26;;;;;;;4.55;1.52;;;21.40;88.90;;;;;;5014019;28;19972;-60
2022/08/29 10:35:14;;;;;;;3.55;1.45;;;21.40;90.10;;;;;;5010322;28;20103;-60
2022/08/29 10:38:05;;;;;;;3.35;1.50;;;21.50;91.90;;;;;;5011658;28;20041;-60
2022/08/29 10:40:48;;;;;;;4.45;1.38;;;21.50;91.00;;;;;;4996161;28;20088;-60
2022/08/29 10:43:38;;;;;;;2.58;1.40;;;21.50;87.50;;;;;;5010235;28;20053;-59
2022/08/29 10:46:12;;;;;;;12.50;1.67;;;21.50;88.20;;;;;;4981815;28;20382;-60
2022/08/29 10:48:49;;;;;;;3.42;1.63;;;21.50;87.80;;;;;;4996535;28;20073;-59
2022/08/29 10:51:26;;;;;;;8.75;2.25;;;21.60;89.90;;;;;;4980290;28;20084;-59
2022/08/29 10:54:02;;;;;;;5.38;1.90;;;21.60;89.50;;;;;;4980138;28;20050;-59
2022/08/29 10:56:41;;;;;;;6.75;2.15;;;21.70;88.80;;;;;;4980791;28;20089;-60
2022/08/29 10:59:17;;;;;;;4.85;1.90;;;21.70;86.30;;;;;;4980620;28;20088;-60
2022/08/29 11:01:59;;;;;;;5.43;1.33;;;21.80;85.40;;;;;;4996162;28;20046;-60
2022/08/29 11:04:33;;;;;;;4.20;1.80;;;21.90;84.50;;;;;;5002946;28;20053;-60
2022/08/29 11:07:11;;;;;;;3.05;1.75;;;22.10;88.00;;;;;;4964881;28;20460;-60
2022/08/29 11:09:46;;;;;;;3.47;1.90;;;22.20;86.30;;;;;;5003223;28;20050;-59
2022/08/29 11:12:51;;;;;;;4.32;2.10;;;22.20;86.10;;;;;;4995837;28;20046;-60
2022/08/29 11:15:30;;;;;;;3.50;1.95;;;22.20;83.70;;;;;;4989794;28;20493;-60
2022/08/29 11:18:20;;;;;;;4.38;1.58;;;22.20;86.80;;;;;;4995843;28;20100;-60
2022/08/29 11:20:50;;;;;;;3.40;1.67;;;22.20;86.50;;;;;;4976929;28;20045;-60
2022/08/29 11:23:33;;;;;;;4.53;1.60;;;22.30;84.70;;;;;;4995866;28;20070;-60
2022/08/29 11:26:04;;;;;;;5.47;2.35;;;22.30;83.20;;;;;;5012977;28;20120;-60
2022/08/29 11:29:02;;;;;;;3.55;1.90;;;22.40;84.80;;;;;;4979133;28;20563;-60
2022/08/29 11:31:41;;;;;;;4.63;1.70;;;22.50;80.60;;;;;;5013058;28;20085;-59
2022/08/29 11:34:33;;;;;;;2.75;1.85;;;22.50;78.50;;;;;;4979998;28;20520;-60
2022/08/29 11:37:17;;;;;;;10.15;1.60;;;22.40;79.30;;;;;;4979424;28;20050;-60
2022/08/29 11:40:03;;;;;;;6.82;1.85;;;22.50;77.90;;;;;;4994358;28;20410;-60
2022/08/29 11:42:33;;;;;;;3.58;2.00;;;22.70;77.80;;;;;;5012228;28;20060;-60
2022/08/29 11:45:26;;;;;;;6.45;2.47;;;22.70;81.60;;;;;;4997062;28;20054;-60
2022/08/29 11:48:28;;;;;;;10.93;3.40;;;22.70;78.20;;;;;;5008849;28;20041;-60
2022/08/29 11:50:54;;;;;;;10.07;2.35;;;22.70;78.20;;;;;;4995225;28;20042;-59
2022/08/29 11:53:34;;;;;;;5.30;1.58;;;22.60;81.50;;;;;;4995646;28;20433;-60
2022/08/29 11:56:13;;;;;;;3.15;1.67;;;22.60;80.00;;;;;;5012369;28;20048;-60
2022/08/29 11:58:45;;;;;;;4.93;1.95;;;22.50;77.80;;;;;;5012321;28;20041;-60
2022/08/29 12:01:35;;;;;;;4.32;1.67;;;22.50;80.80;;;;;;5012876;28;20129;-60
2022/08/29 12:04:03;;;;;;;3.75;2.30;;;22.60;78.10;;;;;;4992785;28;20042;-60
2022/08/29 12:06:41;;;;;;;4.13;2.20;;;22.60;82.10;;;;;;4995062;28;20124;-60
2022/08/29 12:09:24;;;;;;;10.00;2.88;;;22.50;83.70;;;;;;4995281;28;20104;-60
2022/08/29 12:12:03;;;;;;;6.80;2.60;;;22.40;86.20;;;;;;4988044;28;20513;-60
2022/08/29 12:14:33;;;;;;;8.60;2.40;;;22.40;86.20;;;;;;5007689;28;20108;-60
2022/08/29 12:17:16;;;;;;;7.82;2.40;;;22.30;85.90;;;;;;5013122;28;20100;-61
2022/08/29 12:19:53;;;;;;;4.63;1.85;;;22.30;86.30;;;;;;5003310;28;20065;-60
2022/08/29 12:23:02;;;;;;;4.93;2.00;;;22.20;86.10;;;;;;5012088;28;20069;-60
2022/08/29 12:25:44;;;;;;;10.75;2.65;;;22.20;85.80;;;;;;4931987;29;20507;-60
2022/08/29 12:28:11;;;;;;;9.98;4.07;;;22.20;87.60;;;;;;4916117;29;20463;-59
2022/08/29 12:30:40;;;;;;;4.78;2.13;;;22.20;87.80;;;;;;4981181;28;20464;-59
2022/08/29 12:33:38;;;;;;;9.40;2.65;;;22.20;87.80;;;;;;4978612;28;20084;-59
2022/08/29 12:36:09;;;;;;;7.70;2.47;;;22.30;88.60;;;;;;4994261;28;20037;-60
2022/08/29 12:38:52;;;;;;;7.75;2.65;;;22.30;87.70;;;;;;5011893;28;20104;-60
2022/08/29 12:41:39;;;;;;;6.53;2.57;;;22.30;86.50;;;;;;4978332;28;20086;-59
2022/08/29 12:44:10;;;;;;;6.47;2.40;;;22.30;85.10;;;;;;4989879;28;20041;-59
2022/08/29 12:46:41;;;;;;;3.67;2.40;;;22.40;87.90;;;;;;5011609;28;20077;-60
2022/08/29 12:49:36;;;;;;;9.50;3.13;;;22.60;87.40;;;;;;4994539;28;20057;-61
2022/08/29 12:52:06;;;;;;;4.80;2.35;;;22.60;84.80;;;;;;4993838;28;20050;-59
2022/08/29 12:54:40;;;;;;;6.80;2.00;;;22.60;87.40;;;;;;4962964;28;20108;-59
2022/08/29 12:57:33;;;;;;;7.35;2.38;;;22.60;85.70;;;;;;4977575;28;20056;-59
2022/08/29 13:00:03;;;;;;;7.95;2.10;;;22.50;84.80;;;;;;4981020;28;20145;-60
2022/08/29 13:02:31;;;;;;;4.47;2.45;;;22.50;84.30;;;;;;4982377;28;20054;-60
2022/08/29 13:04:58;;;;;;;8.88;2.97;;;22.60;83.40;;;;;;5015721;28;20056;-60
2022/08/29 13:07:26;;;;;;;7.25;2.08;;;22.70;86.30;;;;;;4998436;28;20417;-61
2022/08/29 13:09:53;;;;;;;10.70;3.47;;;22.80;82.50;;;;;;5010035;28;20050;-60